createdAt,value
2023-01-28T00:00:13.942Z,101221.50
2023-01-28T00:03:03.021Z,101227.50
2023-01-28T00:05:35.541Z,101224.94
2023-01-28T00:08:04.758Z,101223.19
2023-01-28T00:10:34.909Z,101230.13
2023-01-28T00:13:03.961Z,101236.13
2023-01-28T00:15:32.848Z,101239.66
2023-01-28T00:18:02.248Z,101241.28
2023-01-28T00:20:31.034Z,101238.63
2023-01-28T00:23:00.119Z,101234.34
2023-01-28T00:25:28.981Z,101235.09
2023-01-28T00:27:59.596Z,101228.19
2023-01-28T00:30:28.450Z,101235.94
2023-01-28T00:32:58.275Z,101230.84
2023-01-28T00:35:27.040Z,101233.38
2023-01-28T00:37:56.084Z,101241.06
2023-01-28T00:40:25.241Z,101241.03
2023-01-28T00:42:54.419Z,101237.66
2023-01-28T00:45:24.820Z,101232.41
2023-01-28T00:47:54.181Z,101229.88
2023-01-28T00:50:23.222Z,101240.28
2023-01-28T00:52:52.333Z,101242.00
2023-01-28T00:55:21.621Z,101233.44
2023-01-28T00:57:51.033Z,101235.13
2023-01-28T01:00:21.901Z,101230.75
2023-01-28T01:02:52.987Z,101232.53
2023-01-28T01:05:21.920Z,101227.16
2023-01-28T01:07:50.961Z,101234.94
2023-01-28T01:10:21.546Z,101233.19
2023-01-28T01:12:51.336Z,101234.84
2023-01-28T01:15:21.914Z,101233.94
2023-01-28T01:17:53.591Z,101232.25
2023-01-28T01:20:26.333Z,101233.03
2023-01-28T01:22:56.066Z,101229.66
2023-01-28T01:25:24.825Z,101233.13
2023-01-28T01:27:53.947Z,101226.25
2023-01-28T01:30:22.771Z,101231.41
2023-01-28T01:32:53.217Z,101228.81
2023-01-28T01:35:22.031Z,101225.16
2023-01-28T01:37:51.194Z,101224.22
2023-01-28T01:40:20.146Z,101220.94
2023-01-28T01:42:49.358Z,101221.88
2023-01-28T01:45:18.550Z,101230.53
2023-01-28T01:47:58.265Z,101226.22
2023-01-28T01:50:33.866Z,101231.41
2023-01-28T01:53:10.531Z,101234.00
2023-01-28T01:55:44.479Z,101226.88
2023-01-28T01:58:19.035Z,101221.75
2023-01-28T02:00:49.462Z,101228.75
2023-01-28T02:03:29.526Z,101225.41
2023-01-28T02:05:58.390Z,101228.81
2023-01-28T02:08:28.054Z,101237.47
2023-01-28T02:11:03.530Z,101226.97
2023-01-28T02:13:39.356Z,101233.03
2023-01-28T02:16:11.185Z,101226.84
2023-01-28T02:18:41.958Z,101238.22
2023-01-28T02:21:52.142Z,101237.22
2023-01-28T02:25:02.718Z,101236.47
2023-01-28T02:27:40.807Z,101234.66
2023-01-28T02:30:22.347Z,101233.84
2023-01-28T02:32:58.764Z,101227.84
2023-01-28T02:35:38.942Z,101233.00
2023-01-28T02:38:13.592Z,101233.78
2023-01-28T02:41:06.413Z,101233.00
2023-01-28T02:43:39.077Z,101234.84
2023-01-28T02:46:41.049Z,101235.53
2023-01-28T02:49:16.043Z,101239.06
2023-01-28T02:52:10.216Z,101234.91
2023-01-28T02:54:53.608Z,101233.97
2023-01-28T02:57:38.644Z,101236.63
2023-01-28T03:00:19.475Z,101242.59
2023-01-28T03:03:00.117Z,101245.13
2023-01-28T03:05:36.849Z,101238.22
2023-01-28T03:08:23.699Z,101243.41
2023-01-28T03:11:11.945Z,101244.31
2023-01-28T03:13:59.790Z,101239.94
2023-01-28T03:16:49.663Z,101237.53
2023-01-28T03:19:37.551Z,101240.88
2023-01-28T03:22:24.156Z,101243.47
2023-01-28T03:25:13.112Z,101243.47
2023-01-28T03:28:10.474Z,101233.97
2023-01-28T03:31:08.599Z,101243.50
2023-01-28T03:34:04.448Z,101241.00
2023-01-28T03:36:54.363Z,101242.59
2023-01-28T03:39:39.200Z,101240.19
2023-01-28T03:42:14.868Z,101237.59
2023-01-28T03:44:54.129Z,101235.94
2023-01-28T03:47:26.246Z,101239.31
2023-01-28T03:49:59.726Z,101242.03
2023-01-28T03:52:33.894Z,101237.66
2023-01-28T03:55:19.333Z,101248.03
2023-01-28T03:57:49.469Z,101243.88
2023-01-28T04:00:20.549Z,101236.06
2023-01-28T04:02:49.789Z,101239.50
2023-01-28T04:05:22.720Z,101237.84
2023-01-28T04:07:56.553Z,101235.09
2023-01-28T04:10:55.006Z,101232.81
2023-01-28T04:13:31.218Z,101246.38
2023-01-28T04:16:03.574Z,101236.91
2023-01-28T04:18:36.604Z,101234.34
2023-01-28T04:21:07.421Z,101237.72
2023-01-28T04:23:38.818Z,101237.72
2023-01-28T04:26:09.530Z,101232.78
2023-01-28T04:28:38.697Z,101234.50
2023-01-28T04:31:08.255Z,101242.25
2023-01-28T04:33:57.729Z,101236.97
2023-01-28T04:36:37.326Z,101241.34
2023-01-28T04:39:25.947Z,101242.28
2023-01-28T04:42:16.031Z,101236.19
2023-01-28T04:45:07.048Z,101245.84
2023-01-28T04:47:56.151Z,101245.63
2023-01-28T04:50:48.428Z,101245.69
2023-01-28T04:53:43.252Z,101247.34
2023-01-28T04:56:32.276Z,101241.25
2023-01-28T04:59:02.201Z,101248.97
2023-01-28T05:01:34.089Z,101244.66
2023-01-28T05:04:05.768Z,101249.13
2023-01-28T05:06:39.374Z,101246.44
2023-01-28T05:09:15.755Z,101250.81
2023-01-28T05:11:47.209Z,101248.94
2023-01-28T05:14:16.983Z,101249.88
2023-01-28T05:16:56.244Z,101249.00
2023-01-28T05:19:25.243Z,101256.06
2023-01-28T05:21:54.379Z,101254.19
2023-01-28T05:24:33.379Z,101261.00
2023-01-28T05:27:03.985Z,101260.97
2023-01-28T05:29:32.790Z,101262.63
2023-01-28T05:32:02.021Z,101261.81
2023-01-28T05:34:33.316Z,101264.47
2023-01-28T05:37:08.471Z,101255.84
2023-01-28T05:39:39.542Z,101253.22
2023-01-28T05:42:10.199Z,101264.41
2023-01-28T05:44:44.707Z,101266.28
2023-01-28T05:47:32.381Z,101261.94
2023-01-28T05:50:17.598Z,101270.81
2023-01-28T05:53:07.816Z,101271.66
2023-01-28T05:55:38.121Z,101269.78
2023-01-28T05:58:08.653Z,101269.78
2023-01-28T06:00:38.596Z,101269.72
2023-01-28T06:03:08.448Z,101272.31
2023-01-28T06:05:38.564Z,101266.25
2023-01-28T06:08:10.350Z,101269.59
2023-01-28T06:10:39.576Z,101270.63
2023-01-28T06:13:10.045Z,101277.63
2023-01-28T06:15:39.115Z,101281.03
2023-01-28T06:18:20.186Z,101284.53
2023-01-28T06:20:51.315Z,101285.50
2023-01-28T06:23:20.473Z,101285.53
2023-01-28T06:25:49.444Z,101278.53
2023-01-28T06:28:19.919Z,101283.78
2023-01-28T06:30:50.253Z,101280.22
2023-01-28T06:33:20.062Z,101294.06
2023-01-28T06:35:49.134Z,101294.94
2023-01-28T06:38:18.287Z,101289.13
2023-01-28T06:40:52.540Z,101298.38
2023-01-28T06:43:27.628Z,101295.00
2023-01-28T06:45:56.665Z,101294.06
2023-01-28T06:48:27.235Z,101283.69
2023-01-28T06:50:56.218Z,101302.66
2023-01-28T06:53:25.407Z,101300.06
2023-01-28T06:55:54.193Z,101301.78
2023-01-28T06:58:24.763Z,101305.16
2023-01-28T07:00:55.505Z,101310.31
2023-01-28T07:03:24.601Z,101315.66
2023-01-28T07:05:53.814Z,101316.47
2023-01-28T07:08:23.154Z,101310.47
2023-01-28T07:10:51.918Z,101319.81
2023-01-28T07:13:20.984Z,101326.78
2023-01-28T07:15:51.165Z,101320.91
2023-01-28T07:18:20.296Z,101326.78
2023-01-28T07:20:49.278Z,101325.06
2023-01-28T07:23:18.459Z,101318.25
2023-01-28T07:25:47.319Z,101308.75
2023-01-28T07:28:21.336Z,101319.25
2023-01-28T07:30:53.784Z,101316.63
2023-01-28T07:33:23.179Z,101319.97
2023-01-28T07:35:52.050Z,101323.41
2023-01-28T07:38:21.293Z,101325.28
2023-01-28T07:40:50.298Z,101325.25
2023-01-28T07:43:19.377Z,101327.06
2023-01-28T07:45:52.049Z,101326.28
2023-01-28T07:48:21.100Z,101333.31
2023-01-28T07:50:51.893Z,101331.59
2023-01-28T07:53:21.225Z,101326.44
2023-01-28T07:55:50.058Z,101332.44
2023-01-28T07:58:19.170Z,101334.19
2023-01-28T08:00:47.945Z,101325.56
2023-01-28T08:03:18.409Z,101328.94
2023-01-28T08:05:49.384Z,101330.75
2023-01-28T08:08:19.211Z,101325.44
2023-01-28T08:10:48.220Z,101328.84
2023-01-28T08:13:19.634Z,101327.22
2023-01-28T08:15:49.181Z,101330.66
2023-01-28T08:18:19.620Z,101331.53
2023-01-28T08:20:48.434Z,101331.53
2023-01-28T08:23:21.032Z,101327.22
2023-01-28T08:25:51.342Z,101334.94
2023-01-28T08:28:22.134Z,101323.03
2023-01-28T08:30:51.159Z,101329.69
2023-01-28T08:33:22.528Z,101333.38
2023-01-28T08:35:51.367Z,101330.75
2023-01-28T08:38:20.482Z,101329.06
2023-01-28T08:40:50.540Z,101329.00
2023-01-28T08:43:19.615Z,101325.44
2023-01-28T08:45:48.473Z,101327.91
2023-01-28T08:48:21.943Z,101330.47
2023-01-28T08:50:51.087Z,101333.94
2023-01-28T08:53:21.870Z,101332.28
2023-01-28T08:55:50.822Z,101324.41
2023-01-28T08:58:20.251Z,101334.00
2023-01-28T09:00:50.162Z,101334.75
2023-01-28T09:03:21.122Z,101346.13
2023-01-28T09:05:50.713Z,101342.63
2023-01-28T09:08:19.861Z,101344.38
2023-01-28T09:10:48.659Z,101344.47
2023-01-28T09:13:17.934Z,101348.78
2023-01-28T09:15:46.836Z,101356.38
2023-01-28T09:18:16.257Z,101353.94
2023-01-28T09:20:46.833Z,101358.34
2023-01-28T09:23:16.184Z,101361.63
2023-01-28T09:25:45.170Z,101362.38
2023-01-28T09:28:14.478Z,101361.38
2023-01-28T09:30:43.347Z,101355.56
2023-01-28T09:33:12.513Z,101364.16
2023-01-28T09:35:41.393Z,101364.91
2023-01-28T09:38:12.039Z,101362.28
2023-01-28T09:40:45.763Z,101372.72
2023-01-28T09:43:54.641Z,101363.16
2023-01-28T09:46:29.356Z,101358.00
2023-01-28T09:49:02.135Z,101359.72
2023-01-28T09:51:37.443Z,101360.66
2023-01-28T09:54:26.410Z,101360.66
2023-01-28T09:57:05.599Z,101355.53
2023-01-28T09:59:37.301Z,101365.09
2023-01-28T10:02:39.105Z,101360.72
2023-01-28T10:05:23.189Z,101350.41
2023-01-28T10:08:09.716Z,101350.38
2023-01-28T10:10:49.002Z,101348.72
2023-01-28T10:13:39.904Z,101347.13
2023-01-28T10:16:25.508Z,101348.66
2023-01-28T10:19:02.227Z,101342.59
2023-01-28T10:21:40.538Z,101342.63
2023-01-28T10:24:18.759Z,101338.41
2023-01-28T10:26:49.422Z,101344.34
2023-01-28T10:29:22.905Z,101343.41
2023-01-28T10:31:55.847Z,101336.59
2023-01-28T10:49:49.249Z,101328.19
2023-01-28T10:52:18.962Z,101334.34
2023-01-28T10:54:47.841Z,101333.38
2023-01-28T10:57:20.395Z,101329.81
2023-01-28T10:59:50.938Z,101323.16
2023-01-28T11:02:33.048Z,101334.31
2023-01-28T11:05:17.680Z,101332.88
2023-01-28T11:07:48.455Z,101332.78
2023-01-28T11:10:32.327Z,101330.00
2023-01-28T11:13:04.813Z,101321.59
2023-01-28T11:15:34.611Z,101327.47
2023-01-28T11:18:09.630Z,101323.81
2023-01-28T11:20:50.420Z,101317.06
2023-01-28T11:23:25.420Z,101317.22
2023-01-28T11:26:06.004Z,101306.22
2023-01-28T11:28:37.003Z,101312.34
2023-01-28T11:31:06.691Z,101311.31
2023-01-28T11:33:40.434Z,101319.13
2023-01-28T11:36:16.838Z,101312.41
2023-01-28T11:38:55.407Z,101312.22
2023-01-28T11:41:31.723Z,101300.09
2023-01-28T11:44:11.666Z,101297.50
2023-01-28T11:47:12.159Z,101303.56
2023-01-28T11:50:07.056Z,101300.88
2023-01-28T11:53:06.428Z,101302.66
2023-01-28T11:55:53.857Z,101304.25
2023-01-28T11:59:54.138Z,101284.06
2023-01-28T12:02:50.045Z,101287.41
2023-01-28T12:05:40.510Z,101271.25
2023-01-28T12:08:23.269Z,101284.53
2023-01-28T12:11:43.609Z,101282.16
2023-01-28T12:14:25.720Z,101283.88
2023-01-28T12:17:21.889Z,101287.38
2023-01-28T12:20:10.726Z,101288.41
2023-01-28T12:23:08.441Z,101279.56
2023-01-28T12:25:54.787Z,101277.94
2023-01-28T12:28:39.743Z,101276.88
2023-01-28T12:31:45.427Z,101279.56
2023-01-28T12:35:06.939Z,101272.66
2023-01-28T12:37:58.900Z,101279.56
2023-01-28T12:40:51.357Z,101267.44
2023-01-28T12:43:29.177Z,101281.25
2023-01-28T12:46:04.652Z,101281.16
2023-01-28T12:48:41.653Z,101276.84
2023-01-28T12:51:18.304Z,101278.44
2023-01-28T12:53:56.229Z,101276.09
2023-01-28T12:56:33.958Z,101280.34
2023-01-28T12:59:13.870Z,101283.75
2023-01-28T13:01:50.754Z,101284.69
2023-01-28T13:04:37.805Z,101283.81
2023-01-28T13:07:17.906Z,101280.47
2023-01-28T13:09:54.929Z,101279.63
2023-01-28T13:12:24.694Z,101281.41
2023-01-28T13:14:54.534Z,101279.69
2023-01-28T13:17:32.949Z,101275.25
2023-01-28T13:20:02.336Z,101278.84
2023-01-28T13:22:36.021Z,101285.63
2023-01-28T13:25:28.115Z,101294.31
2023-01-28T13:28:01.191Z,101294.53
2023-01-28T13:30:32.887Z,101293.03
2023-01-28T13:33:04.475Z,101291.44
2023-01-28T13:35:38.068Z,101294.16
2023-01-28T13:38:20.098Z,101292.41
2023-01-28T13:40:58.202Z,101290.66
2023-01-28T13:43:38.108Z,101297.59
2023-01-28T13:46:11.294Z,101298.53
2023-01-28T13:48:51.192Z,101301.16
2023-01-28T13:51:25.336Z,101289.97
2023-01-28T13:54:03.643Z,101289.03
2023-01-28T13:56:43.410Z,101296.81
2023-01-28T13:59:50.613Z,101292.47
2023-01-28T14:03:08.633Z,101295.00
2023-01-28T14:06:26.951Z,101290.69
2023-01-28T14:09:24.945Z,101282.03
2023-01-28T14:12:39.324Z,101285.41
2023-01-28T14:15:34.804Z,101282.88
2023-01-28T14:18:13.172Z,101282.91
2023-01-28T14:20:46.757Z,101292.31
2023-01-28T14:23:22.281Z,101289.81
2023-01-28T14:26:08.093Z,101301.00
2023-01-28T14:28:51.534Z,101289.81
2023-01-28T14:31:29.211Z,101294.03
2023-01-28T14:34:15.460Z,101294.03
2023-01-28T14:36:48.950Z,101297.66
2023-01-28T14:39:22.421Z,101294.22
2023-01-28T14:41:56.448Z,101286.44
2023-01-28T14:44:37.812Z,101298.44
2023-01-28T14:47:38.781Z,101288.88
2023-01-28T14:50:43.529Z,101294.97
2023-01-28T14:53:43.945Z,101299.31
2023-01-28T14:56:29.363Z,101300.97
2023-01-28T14:59:08.453Z,101294.91
2023-01-28T15:01:44.959Z,101297.44
2023-01-28T15:04:26.313Z,101297.34
2023-01-28T15:06:55.376Z,101304.34
2023-01-28T15:09:25.807Z,101302.69
2023-01-28T15:12:01.036Z,101300.91
2023-01-28T15:14:33.874Z,101298.28
2023-01-28T15:17:04.839Z,101301.81
2023-01-28T15:19:36.855Z,101311.41
2023-01-28T15:22:08.915Z,101314.97
2023-01-28T15:24:43.211Z,101311.66
2023-01-28T15:27:20.157Z,101325.53
2023-01-28T15:29:57.856Z,101320.22
2023-01-28T15:32:29.985Z,101321.97
2023-01-28T15:35:02.237Z,101321.00
2023-01-28T15:37:31.150Z,101323.59
2023-01-28T15:40:06.897Z,101314.41
2023-01-28T15:42:36.290Z,101321.00
2023-01-28T15:45:18.786Z,101325.19
2023-01-28T15:47:49.530Z,101327.84
2023-01-28T15:50:22.697Z,101327.78
2023-01-28T15:52:55.563Z,101333.06
2023-01-28T15:55:38.140Z,101336.59
2023-01-28T15:58:30.953Z,101335.69
2023-01-28T16:01:17.743Z,101328.13
2023-01-28T16:03:49.314Z,101325.50
2023-01-28T16:06:23.112Z,101321.91
2023-01-28T16:08:58.973Z,101327.09
2023-01-28T16:11:31.763Z,101327.84
2023-01-28T16:14:01.835Z,101330.50
2023-01-28T16:16:36.515Z,101339.16
2023-01-28T16:19:08.778Z,101340.88
2023-01-28T16:21:46.002Z,101329.78
2023-01-28T16:24:27.305Z,101338.34
2023-01-28T16:27:02.596Z,101333.09
2023-01-28T16:29:32.555Z,101334.75
2023-01-28T16:32:04.243Z,101339.13
2023-01-28T16:34:33.217Z,101334.75
2023-01-28T16:37:03.204Z,101321.94
2023-01-28T16:39:31.979Z,101321.19
2023-01-28T16:42:01.044Z,101336.75
2023-01-28T16:44:29.882Z,101347.91
2023-01-28T16:46:58.970Z,101341.78
2023-01-28T16:49:29.146Z,101341.81
2023-01-28T16:51:58.464Z,101336.56
2023-01-28T16:54:27.383Z,101334.00
2023-01-28T16:56:58.325Z,101342.63
2023-01-28T16:59:27.170Z,101343.47
2023-01-28T17:01:56.321Z,101343.44
2023-01-28T17:04:25.092Z,101341.66
2023-01-28T17:06:55.553Z,101337.38
2023-01-28T17:09:25.504Z,101334.75
2023-01-28T17:11:54.652Z,101330.59
2023-01-28T17:14:23.754Z,101350.44
2023-01-28T17:16:52.844Z,101338.44
2023-01-28T17:19:21.916Z,101337.59
2023-01-28T17:21:51.142Z,101340.38
2023-01-28T17:24:21.599Z,101333.09
2023-01-28T17:26:53.758Z,101333.81
2023-01-28T17:29:22.578Z,101338.91
2023-01-28T17:31:51.795Z,101337.19
2023-01-28T17:34:20.808Z,101339.03
2023-01-28T17:36:49.962Z,101343.28
2023-01-28T17:39:20.406Z,101346.72
2023-01-28T17:41:52.109Z,101347.59
2023-01-28T17:44:21.401Z,101346.81
2023-01-28T17:46:50.601Z,101353.66
2023-01-28T17:49:19.505Z,101358.78
2023-01-28T17:51:48.876Z,101352.75
2023-01-28T17:54:17.692Z,101357.00
2023-01-28T17:56:48.206Z,101359.56
2023-01-28T17:59:17.732Z,101357.88
2023-01-28T18:01:48.122Z,101364.88
2023-01-28T18:04:17.002Z,101349.41
2023-01-28T18:06:47.133Z,101356.38
2023-01-28T18:09:16.033Z,101361.47
2023-01-28T18:11:45.144Z,101362.28
2023-01-28T18:14:15.658Z,101361.41
2023-01-28T18:16:44.844Z,101364.00
2023-01-28T18:19:14.134Z,101364.81
2023-01-28T18:21:52.703Z,101374.34
2023-01-28T18:24:23.939Z,101365.75
2023-01-28T18:26:55.397Z,101378.78
2023-01-28T18:29:26.570Z,101386.47
2023-01-28T18:31:58.085Z,101384.00
2023-01-28T18:34:30.851Z,101383.13
2023-01-28T18:37:00.554Z,101386.63
2023-01-28T18:39:31.233Z,101391.81
2023-01-28T18:42:00.992Z,101391.78
2023-01-28T18:44:32.177Z,101391.00
2023-01-28T18:47:01.328Z,101385.88
2023-01-28T18:49:30.289Z,101385.94
2023-01-28T18:51:59.484Z,101383.38
2023-01-28T18:54:28.306Z,101382.41
2023-01-28T18:56:57.413Z,101379.81
2023-01-28T18:59:26.494Z,101391.00
2023-01-28T19:01:57.040Z,101376.19
2023-01-28T19:04:25.991Z,101374.63
2023-01-28T19:06:58.022Z,101373.88
2023-01-28T19:09:26.788Z,101367.00
2023-01-28T19:11:55.895Z,101366.06
2023-01-28T19:14:24.689Z,101375.66
2023-01-28T19:16:53.808Z,101374.84
2023-01-28T19:19:24.011Z,101373.06
2023-01-28T19:21:53.589Z,101377.47
2023-01-28T19:24:22.535Z,101376.56
2023-01-28T19:26:51.735Z,101383.47
2023-01-28T19:29:20.610Z,101381.84
2023-01-28T19:31:49.830Z,101381.00
2023-01-28T19:34:18.741Z,101385.06
2023-01-28T19:36:49.252Z,101385.22
2023-01-28T19:39:18.489Z,101384.38
2023-01-28T19:41:47.619Z,101392.09
2023-01-28T19:44:16.583Z,101392.84
2023-01-28T19:46:45.703Z,101392.03
2023-01-28T19:49:15.665Z,101383.44
2023-01-28T19:51:45.280Z,101391.19
2023-01-28T19:54:15.641Z,101395.50
2023-01-28T19:56:44.788Z,101398.09
2023-01-28T19:59:15.092Z,101392.91
2023-01-28T20:01:44.380Z,101397.22
2023-01-28T20:04:13.470Z,101406.78
2023-01-28T20:06:42.569Z,101397.38
2023-01-28T20:09:21.186Z,101399.81
2023-01-28T20:11:50.420Z,101401.00
2023-01-28T20:14:20.902Z,101398.41
2023-01-28T20:16:50.252Z,101393.19
2023-01-28T20:19:20.343Z,101394.00
2023-01-28T20:21:52.802Z,101399.13
2023-01-28T20:24:23.020Z,101405.16
2023-01-28T20:26:52.350Z,101401.72
2023-01-28T20:29:22.489Z,101411.53
2023-01-28T20:32:08.881Z,101419.97
2023-01-28T20:34:40.437Z,101413.09
2023-01-28T20:37:10.177Z,101414.78
2023-01-28T20:39:40.347Z,101412.22
2023-01-28T20:42:10.802Z,101415.69
2023-01-28T20:44:39.659Z,101425.44
2023-01-28T20:47:08.952Z,101409.72
2023-01-28T20:49:38.013Z,101411.47
2023-01-28T20:52:07.349Z,101422.66
2023-01-28T20:54:36.181Z,101418.28
2023-01-28T20:57:06.685Z,101421.66
2023-01-28T20:59:35.567Z,101423.38
2023-01-28T21:02:05.445Z,101428.56
2023-01-28T21:04:36.066Z,101432.94
2023-01-28T21:07:05.245Z,101433.75
2023-01-28T21:09:34.053Z,101422.66
2023-01-28T21:12:03.234Z,101435.63
2023-01-28T21:14:33.440Z,101438.16
2023-01-28T21:17:02.611Z,101434.84
2023-01-28T21:19:31.675Z,101424.47
2023-01-28T21:22:00.780Z,101431.34
2023-01-28T21:24:29.835Z,101433.94
2023-01-28T21:26:59.186Z,101428.03
2023-01-28T21:29:28.097Z,101421.88
2023-01-28T21:31:58.683Z,101416.66
2023-01-28T21:34:27.829Z,101409.59
2023-01-28T21:36:57.001Z,101406.22
2023-01-28T21:39:26.085Z,101391.59
2023-01-28T21:41:55.285Z,101396.75
2023-01-28T21:44:24.395Z,101407.31
2023-01-28T21:46:53.499Z,101417.69
2023-01-28T21:49:23.727Z,101403.94
2023-01-28T21:51:52.920Z,101406.50
2023-01-28T21:54:22.358Z,101409.97
2023-01-28T21:56:53.188Z,101400.41
2023-01-28T21:59:32.728Z,101405.59
2023-01-28T22:02:05.465Z,101400.34
2023-01-28T22:04:38.370Z,101391.78
2023-01-28T22:07:10.305Z,101385.66
2023-01-28T22:09:40.049Z,101377.91
2023-01-28T22:12:09.680Z,101383.06
2023-01-28T22:14:40.195Z,101371.84
2023-01-28T22:17:11.180Z,101363.09
2023-01-28T22:19:47.796Z,101348.38
2023-01-28T22:22:17.392Z,101370.88
2023-01-28T22:24:46.356Z,101364.88
2023-01-28T22:27:15.505Z,101365.72
2023-01-28T22:29:44.297Z,101371.81
2023-01-28T22:32:13.413Z,101368.47
2023-01-28T22:34:45.983Z,101357.31
2023-01-28T22:37:16.111Z,101362.47
2023-01-28T22:39:44.912Z,101362.44
2023-01-28T22:42:14.229Z,101366.66
2023-01-28T22:44:43.191Z,101367.47
2023-01-28T22:47:14.850Z,101373.59
2023-01-28T22:49:45.081Z,101382.19
2023-01-28T22:52:14.366Z,101382.19
2023-01-28T22:54:43.171Z,101388.28
2023-01-28T22:57:12.228Z,101389.19
2023-01-28T22:59:43.748Z,101384.00
2023-01-28T23:02:15.438Z,101396.88
2023-01-28T23:04:45.813Z,101410.78
2023-01-28T23:07:15.315Z,101416.84
2023-01-28T23:09:44.779Z,101408.28
2023-01-28T23:12:13.932Z,101408.34
2023-01-28T23:15:00.135Z,101416.22
2023-01-28T23:17:46.867Z,101410.94
2023-01-28T23:20:34.768Z,101409.31
2023-01-28T23:23:21.465Z,101403.31
2023-01-28T23:25:50.339Z,101403.31
2023-01-28T23:28:19.443Z,101396.41
2023-01-28T23:30:48.496Z,101396.41
2023-01-28T23:33:17.746Z,101392.03
2023-01-28T23:35:48.002Z,101390.34
2023-01-28T23:38:17.146Z,101398.94
2023-01-28T23:40:45.964Z,101392.09
2023-01-28T23:43:15.061Z,101387.66
2023-01-28T23:45:44.283Z,101393.81
2023-01-28T23:48:13.331Z,101393.88
2023-01-28T23:50:42.222Z,101395.72
2023-01-28T23:53:13.386Z,101388.81
2023-01-28T23:55:42.165Z,101386.31
2023-01-28T23:58:11.247Z,101392.31
